Time;durP1;ratioP1;P1;durP2;ratioP2;P2;SDS_P1;SDS_P2;PMS_P1;PMS_P2;Temp;Humidity;BMP_temperature;BMP_pressure;BME280_temperature;BME280_humidity;BME280_pressure;Samples;Min_cycle;Max_cycle;Signal;HPM_P1;HPM_P2
2021/10/23 00:02:05;;;;;;;0.70;0.52;;;21.80;69.70;;;;;;5106880;28;20032;-34
2021/10/23 00:04:31;;;;;;;0.55;0.50;;;21.80;69.70;;;;;;5106921;28;20156;-34
2021/10/23 00:06:57;;;;;;;0.60;0.52;;;21.80;69.60;;;;;;5106484;28;20039;-34
2021/10/23 00:09:23;;;;;;;1.20;0.77;;;21.80;69.60;;;;;;5106660;28;20584;-34
2021/10/23 00:11:50;;;;;;;0.60;0.60;;;21.70;69.30;;;;;;5106419;28;20059;-34
2021/10/23 00:14:16;;;;;;;0.80;0.60;;;21.80;69.30;;;;;;5106783;28;20012;-34
2021/10/23 00:16:42;;;;;;;0.60;0.60;;;21.70;68.80;;;;;;5106796;28;20024;-34
2021/10/23 00:19:08;;;;;;;0.63;0.60;;;21.70;68.90;;;;;;5106496;28;20035;-34
2021/10/23 00:21:34;;;;;;;0.57;0.55;;;21.70;68.70;;;;;;5103118;28;20051;-34
2021/10/23 00:24:00;;;;;;;1.50;0.60;;;21.70;68.80;;;;;;5086138;28;20099;-34
2021/10/23 00:26:27;;;;;;;1.08;0.60;;;21.70;68.90;;;;;;5095803;28;20016;-36
2021/10/23 00:28:53;;;;;;;0.90;0.80;;;21.70;68.90;;;;;;5105262;28;20049;-34
2021/10/23 00:31:19;;;;;;;0.60;0.60;;;21.70;68.90;;;;;;5106427;28;20020;-35
2021/10/23 00:33:45;;;;;;;0.60;0.60;;;21.60;68.70;;;;;;5104933;28;20111;-34
2021/10/23 00:36:11;;;;;;;1.05;0.65;;;21.60;68.70;;;;;;5106095;28;20032;-34
2021/10/23 00:38:38;;;;;;;0.80;0.65;;;21.60;68.60;;;;;;5106392;28;20024;-34
2021/10/23 00:41:04;;;;;;;0.80;0.60;;;21.60;68.70;;;;;;5106283;28;20020;-35
2021/10/23 00:43:30;;;;;;;0.80;0.60;;;21.60;68.80;;;;;;5106150;28;20024;-34
2021/10/23 00:45:56;;;;;;;0.73;0.50;;;21.60;68.70;;;;;;5100107;28;20115;-34
2021/10/23 00:48:22;;;;;;;0.77;0.65;;;21.50;68.60;;;;;;5086015;28;20108;-34
2021/10/23 00:50:48;;;;;;;0.65;0.50;;;21.60;68.70;;;;;;5085703;28;20032;-34
2021/10/23 00:53:15;;;;;;;0.70;0.70;;;21.60;68.90;;;;;;5084162;28;20070;-34
2021/10/23 00:55:41;;;;;;;0.52;0.50;;;21.50;68.60;;;;;;5084296;28;20385;-34
2021/10/23 00:58:08;;;;;;;1.05;0.70;;;21.50;68.60;;;;;;5085735;28;20035;-34
2021/10/23 01:00:34;;;;;;;0.80;0.50;;;21.50;68.70;;;;;;5085792;28;20033;-34
2021/10/23 01:03:00;;;;;;;1.47;0.70;;;21.50;68.80;;;;;;5085508;28;20111;-34
2021/10/23 01:05:26;;;;;;;0.65;0.60;;;21.50;68.80;;;;;;5094580;28;20020;-34
2021/10/23 01:07:52;;;;;;;0.65;0.57;;;21.50;69.50;;;;;;5104328;28;20051;-34
2021/10/23 01:10:18;;;;;;;0.70;0.63;;;21.40;68.70;;;;;;5104515;28;20046;-34
2021/10/23 01:12:45;;;;;;;0.80;0.60;;;21.40;69.40;;;;;;5105340;28;20040;-34
2021/10/23 01:15:20;;;;;;;0.60;0.60;;;21.40;68.80;;;;;;5105670;28;20080;-34
2021/10/23 01:17:46;;;;;;;1.10;0.70;;;21.40;68.80;;;;;;5105534;28;20031;-37
2021/10/23 01:20:12;;;;;;;0.70;0.63;;;21.40;68.90;;;;;;5103460;28;20085;-35
2021/10/23 01:22:39;;;;;;;0.73;0.68;;;21.40;68.80;;;;;;5105450;28;20265;-36
2021/10/23 01:25:05;;;;;;;1.10;0.80;;;21.40;68.90;;;;;;5105576;28;20076;-35
2021/10/23 01:27:31;;;;;;;0.70;0.70;;;21.30;68.80;;;;;;5105392;28;20032;-35
2021/10/23 01:29:57;;;;;;;1.20;0.80;;;21.30;68.80;;;;;;5105380;28;20028;-35
2021/10/23 01:32:24;;;;;;;0.82;0.70;;;21.30;68.80;;;;;;5105468;28;20082;-35
2021/10/23 01:34:50;;;;;;;0.63;0.60;;;21.30;68.90;;;;;;5104841;28;20027;-36
2021/10/23 01:37:16;;;;;;;0.93;0.55;;;21.30;68.90;;;;;;5105222;28;20682;-35
2021/10/23 01:39:42;;;;;;;0.82;0.80;;;21.30;69.10;;;;;;5105257;28;20032;-35
2021/10/23 01:42:08;;;;;;;0.80;0.75;;;21.20;68.90;;;;;;5105133;28;20032;-35
2021/10/23 01:44:35;;;;;;;1.67;0.80;;;21.20;69.00;;;;;;5104826;28;20027;-35
2021/10/23 01:47:06;;;;;;;1.23;0.75;;;21.20;69.00;;;;;;5105145;28;20027;-35
2021/10/23 01:49:32;;;;;;;1.35;0.88;;;21.20;69.00;;;;;;5104434;28;20028;-35
2021/10/23 01:51:58;;;;;;;0.70;0.70;;;21.20;69.10;;;;;;5104942;28;20067;-35
2021/10/23 01:54:24;;;;;;;0.68;0.65;;;21.20;69.10;;;;;;5104615;28;20035;-35
2021/10/23 01:56:51;;;;;;;0.93;0.70;;;21.20;69.10;;;;;;5104726;28;20032;-35
2021/10/23 01:59:17;;;;;;;0.75;0.70;;;21.10;69.10;;;;;;5104879;28;20028;-35
2021/10/23 02:01:43;;;;;;;1.08;0.82;;;21.10;69.00;;;;;;5104941;28;20020;-35
2021/10/23 02:04:10;;;;;;;0.70;0.70;;;21.10;69.20;;;;;;5104137;28;20484;-35
2021/10/23 02:06:36;;;;;;;0.70;0.60;;;21.10;69.20;;;;;;5104887;28;20028;-35
2021/10/23 02:09:02;;;;;;;0.90;0.80;;;21.10;69.20;;;;;;5104287;28;20083;-35
2021/10/23 02:11:29;;;;;;;2.23;0.77;;;21.10;69.20;;;;;;5104143;28;20089;-36
2021/10/23 02:13:55;;;;;;;1.73;0.80;;;21.00;69.20;;;;;;5087846;28;20103;-35
2021/10/23 02:16:22;;;;;;;0.80;0.75;;;21.00;69.20;;;;;;5084117;28;20036;-35
2021/10/23 02:18:48;;;;;;;0.75;0.75;;;21.00;69.30;;;;;;5091756;28;20023;-35
2021/10/23 02:21:14;;;;;;;3.13;0.73;;;21.00;69.20;;;;;;5104396;28;20028;-35
2021/10/23 02:23:41;;;;;;;1.10;0.77;;;21.00;69.30;;;;;;5103774;28;20059;-35
2021/10/23 02:26:07;;;;;;;1.60;0.90;;;21.00;69.30;;;;;;5104322;28;20028;-35
2021/10/23 02:28:33;;;;;;;0.73;0.73;;;20.90;69.30;;;;;;5104355;28;20050;-35
2021/10/23 02:30:59;;;;;;;0.90;0.77;;;20.90;69.30;;;;;;5102811;28;20020;-35
2021/10/23 02:33:26;;;;;;;1.20;0.88;;;20.90;69.40;;;;;;5102746;28;20327;-35
2021/10/23 02:35:52;;;;;;;0.90;0.70;;;20.90;69.40;;;;;;5103897;28;20020;-35
2021/10/23 02:38:18;;;;;;;1.20;0.70;;;20.90;69.50;;;;;;5104125;28;20137;-35
2021/10/23 02:40:44;;;;;;;0.70;0.68;;;20.90;69.50;;;;;;5104215;28;20065;-35
2021/10/23 02:43:11;;;;;;;1.23;0.90;;;20.80;69.50;;;;;;5104069;28;20027;-35
2021/10/23 02:45:37;;;;;;;0.93;0.70;;;20.80;69.50;;;;;;5100507;28;20031;-35
2021/10/23 02:48:03;;;;;;;2.05;0.60;;;20.80;69.60;;;;;;5083719;28;20033;-36
2021/10/23 02:50:29;;;;;;;1.00;0.90;;;20.80;69.60;;;;;;5083543;28;20020;-35
2021/10/23 02:52:56;;;;;;;1.00;0.90;;;20.80;69.60;;;;;;5083523;28;20040;-35
2021/10/23 02:55:22;;;;;;;0.90;0.80;;;20.80;69.60;;;;;;5083329;28;20024;-35
2021/10/23 02:57:48;;;;;;;1.02;0.90;;;20.70;69.60;;;;;;5083607;28;20090;-35
2021/10/23 03:00:15;;;;;;;0.98;0.80;;;20.70;70.30;;;;;;5083405;28;20039;-35
2021/10/23 03:02:41;;;;;;;1.83;0.98;;;20.70;69.60;;;;;;5083521;28;20104;-35
2021/10/23 03:05:08;;;;;;;1.00;0.90;;;20.70;69.70;;;;;;5089485;28;20027;-35
2021/10/23 03:07:34;;;;;;;1.00;0.82;;;20.70;69.80;;;;;;5085271;28;20113;-35
2021/10/23 03:10:00;;;;;;;1.20;0.90;;;20.70;69.80;;;;;;5103599;28;20032;-35
2021/10/23 03:12:28;;;;;;;1.10;0.90;;;20.60;69.80;;;;;;5103643;28;20036;-36
2021/10/23 03:14:54;;;;;;;1.15;0.88;;;20.60;69.80;;;;;;5103222;28;20032;-36
2021/10/23 03:17:20;;;;;;;1.48;0.80;;;20.60;69.80;;;;;;5103700;28;20030;-35
2021/10/23 03:19:47;;;;;;;1.02;0.93;;;20.60;70.00;;;;;;5103363;28;20023;-35
2021/10/23 03:22:13;;;;;;;1.33;0.80;;;20.60;70.00;;;;;;5103326;28;20031;-35
2021/10/23 03:24:39;;;;;;;1.58;1.10;;;20.60;70.00;;;;;;5102508;28;20106;-36
2021/10/23 03:27:05;;;;;;;1.05;0.90;;;20.60;70.00;;;;;;5103304;28;20054;-36
2021/10/23 03:29:31;;;;;;;0.95;0.80;;;20.50;70.10;;;;;;5103609;28;20719;-35
2021/10/23 03:31:57;;;;;;;1.38;1.00;;;20.50;70.10;;;;;;5103361;28;20035;-35
2021/10/23 03:34:23;;;;;;;1.10;0.90;;;20.50;70.10;;;;;;5103043;28;20056;-35
2021/10/23 03:36:49;;;;;;;0.98;0.90;;;20.50;70.10;;;;;;5102987;28;20031;-35
2021/10/23 03:39:16;;;;;;;0.95;0.93;;;20.50;70.20;;;;;;5103359;28;20024;-35
2021/10/23 03:41:42;;;;;;;1.27;0.88;;;20.50;70.20;;;;;;5103239;28;20024;-35
2021/10/23 03:44:08;;;;;;;0.95;0.95;;;20.40;70.10;;;;;;5103400;28;20024;-35
2021/10/23 03:46:34;;;;;;;3.10;1.17;;;20.40;70.10;;;;;;5101471;28;20021;-35
2021/10/23 03:49:00;;;;;;;1.33;0.93;;;20.40;70.10;;;;;;5101814;28;20040;-35
2021/10/23 03:51:26;;;;;;;1.60;0.75;;;20.40;70.20;;;;;;5102775;28;20044;-36
2021/10/23 03:53:53;;;;;;;1.30;1.10;;;20.40;70.20;;;;;;5103247;28;20032;-36
2021/10/23 03:56:19;;;;;;;1.85;1.10;;;20.30;70.30;;;;;;5102812;28;20076;-35
2021/10/23 03:58:45;;;;;;;1.20;1.10;;;20.30;70.30;;;;;;5103111;28;20038;-35
2021/10/23 04:01:11;;;;;;;1.35;1.05;;;20.30;70.40;;;;;;5103212;28;20059;-35
2021/10/23 04:03:37;;;;;;;1.23;1.10;;;20.30;70.40;;;;;;5103056;28;20032;-36
2021/10/23 04:06:03;;;;;;;1.33;1.10;;;20.30;70.40;;;;;;5102622;28;20032;-35
2021/10/23 04:08:29;;;;;;;1.05;0.90;;;20.30;70.50;;;;;;5101182;28;20068;-35
2021/10/23 04:10:55;;;;;;;1.40;1.30;;;20.30;70.60;;;;;;5083385;28;20131;-35
2021/10/23 04:13:22;;;;;;;1.08;0.80;;;20.20;70.50;;;;;;5082686;28;20032;-35
2021/10/23 04:15:49;;;;;;;1.33;1.02;;;20.20;70.50;;;;;;5082677;28;20099;-35
2021/10/23 04:18:15;;;;;;;;;;;20.20;70.60;;;;;;5086525;28;20392;-35
2021/10/23 04:20:41;;;;;;;1.55;1.15;;;20.20;70.60;;;;;;5102202;28;19915;-35
2021/10/23 04:23:07;;;;;;;1.30;1.20;;;20.20;70.60;;;;;;5102986;28;20047;-35
2021/10/23 04:25:33;;;;;;;1.10;1.00;;;20.10;70.60;;;;;;5102461;28;20040;-35
2021/10/23 04:27:59;;;;;;;1.15;1.00;;;20.10;70.70;;;;;;5102621;28;20024;-35
2021/10/23 04:30:25;;;;;;;1.40;1.15;;;20.10;70.60;;;;;;5103064;28;20028;-35
2021/10/23 04:32:52;;;;;;;2.03;1.15;;;20.10;70.70;;;;;;5101315;28;20107;-35
2021/10/23 04:35:18;;;;;;;1.98;1.15;;;20.10;70.70;;;;;;5104142;28;20028;-39
2021/10/23 04:37:44;;;;;;;1.15;0.95;;;20.10;70.80;;;;;;5106513;28;20100;-35
2021/10/23 04:40:10;;;;;;;1.20;1.10;;;20.10;70.70;;;;;;5105082;28;20035;-35
2021/10/23 04:42:37;;;;;;;1.33;1.00;;;20.10;70.80;;;;;;5105162;28;20047;-35
2021/10/23 04:45:04;;;;;;;1.33;1.00;;;20.00;70.80;;;;;;5106476;28;20527;-35
2021/10/23 04:47:30;;;;;;;1.17;1.08;;;20.00;70.80;;;;;;5085464;28;20103;-35
2021/10/23 04:49:56;;;;;;;1.42;1.20;;;20.00;70.80;;;;;;5098624;28;20719;-35
2021/10/23 04:52:22;;;;;;;1.15;1.05;;;20.00;70.90;;;;;;5106083;28;20115;-35
2021/10/23 04:54:48;;;;;;;1.27;1.05;;;20.00;70.90;;;;;;5106199;28;20473;-36
2021/10/23 04:57:15;;;;;;;3.00;1.05;;;20.00;71.00;;;;;;5105795;28;20070;-35
2021/10/23 04:59:41;;;;;;;1.40;1.30;;;20.00;71.00;;;;;;5106090;28;20051;-35
2021/10/23 05:02:07;;;;;;;1.35;1.08;;;19.90;71.00;;;;;;5105971;28;20032;-35
2021/10/23 05:04:33;;;;;;;1.60;1.10;;;19.90;71.00;;;;;;5105678;28;20023;-35
2021/10/23 05:07:00;;;;;;;1.90;1.08;;;19.90;71.10;;;;;;5105684;28;20024;-35
2021/10/23 05:09:26;;;;;;;1.48;1.05;;;19.90;71.10;;;;;;5105789;28;20119;-35
2021/10/23 05:11:52;;;;;;;1.38;0.95;;;19.90;71.10;;;;;;5104429;28;20028;-35
2021/10/23 05:14:19;;;;;;;1.58;1.15;;;19.80;71.00;;;;;;5105700;28;20038;-35
2021/10/23 05:16:45;;;;;;;;;;;19.80;71.00;;;;;;5105938;28;20024;-35
2021/10/23 05:19:11;;;;;;;1.20;1.00;;;19.80;71.00;;;;;;5105501;28;19908;-35
2021/10/23 05:21:37;;;;;;;1.40;1.10;;;19.80;71.10;;;;;;5105382;28;20032;-35
2021/10/23 05:24:04;;;;;;;1.52;1.27;;;19.80;71.20;;;;;;5105603;28;20028;-35
2021/10/23 05:26:30;;;;;;;1.27;0.90;;;19.80;71.20;;;;;;5105210;28;20034;-35
2021/10/23 05:28:56;;;;;;;1.10;1.00;;;19.80;71.30;;;;;;5105577;28;20054;-35
2021/10/23 05:31:22;;;;;;;2.00;1.30;;;19.70;71.20;;;;;;5105354;28;20042;-35
2021/10/23 05:33:48;;;;;;;1.52;1.20;;;19.70;71.20;;;;;;5105334;28;20027;-35
2021/10/23 05:36:15;;;;;;;1.20;1.10;;;19.70;71.30;;;;;;5104925;28;20028;-35
2021/10/23 05:38:41;;;;;;;1.08;0.98;;;19.70;71.30;;;;;;5104026;28;20099;-35
2021/10/23 05:41:07;;;;;;;1.10;1.00;;;19.70;71.30;;;;;;5105287;28;20028;-36
2021/10/23 05:43:33;;;;;;;2.08;1.33;;;19.70;71.30;;;;;;5104066;28;20020;-35
2021/10/23 05:45:59;;;;;;;1.42;1.08;;;19.70;71.40;;;;;;5104595;28;20028;-35
2021/10/23 05:48:26;;;;;;;2.38;1.10;;;19.60;71.30;;;;;;5104290;28;20048;-35
2021/10/23 05:50:52;;;;;;;2.22;1.20;;;19.60;71.90;;;;;;5084592;28;20028;-35
2021/10/23 05:53:18;;;;;;;1.73;1.30;;;19.60;71.50;;;;;;5085006;28;20088;-36
2021/10/23 05:55:44;;;;;;;1.50;1.20;;;19.60;71.50;;;;;;5104802;28;20094;-36
2021/10/23 05:58:10;;;;;;;1.38;1.08;;;19.60;71.50;;;;;;5104806;28;20020;-35
2021/10/23 06:00:37;;;;;;;1.35;1.25;;;19.60;71.60;;;;;;5104738;28;20098;-35
2021/10/23 06:03:03;;;;;;;3.33;1.30;;;19.60;71.50;;;;;;5104726;28;20069;-35
2021/10/23 06:05:30;;;;;;;1.23;1.05;;;19.50;71.50;;;;;;5104552;28;20047;-35
2021/10/23 06:07:56;;;;;;;1.67;1.23;;;19.50;71.60;;;;;;5104529;28;20134;-35
2021/10/23 06:10:22;;;;;;;2.13;1.00;;;19.50;71.60;;;;;;5104801;28;20028;-35
2021/10/23 06:12:49;;;;;;;2.28;1.27;;;19.50;71.50;;;;;;5104658;28;20044;-35
2021/10/23 06:15:15;;;;;;;1.30;1.00;;;19.50;71.60;;;;;;5100157;28;20047;-38
2021/10/23 06:17:41;;;;;;;1.38;1.13;;;19.50;71.60;;;;;;5102957;28;20097;-35
2021/10/23 06:20:08;;;;;;;1.70;1.40;;;19.40;71.60;;;;;;5104098;28;20054;-36
2021/10/23 06:22:35;;;;;;;1.15;1.05;;;19.50;71.70;;;;;;5104693;28;20032;-35
2021/10/23 06:25:01;;;;;;;1.10;0.70;;;19.40;71.70;;;;;;5104304;28;20549;-35
2021/10/23 06:27:28;;;;;;;1.65;1.20;;;19.40;71.70;;;;;;5104190;28;20028;-35
2021/10/23 06:29:54;;;;;;;1.45;1.20;;;19.40;71.80;;;;;;5104308;28;20588;-35
2021/10/23 06:32:20;;;;;;;1.52;1.27;;;19.40;71.80;;;;;;5103994;28;20020;-35
2021/10/23 06:34:46;;;;;;;1.80;1.27;;;19.40;71.80;;;;;;5104270;28;20115;-35
2021/10/23 06:37:12;;;;;;;1.35;1.00;;;19.30;71.70;;;;;;5104006;28;20035;-35
2021/10/23 06:39:39;;;;;;;1.20;1.10;;;19.30;71.80;;;;;;5104190;28;20048;-35
2021/10/23 06:42:05;;;;;;;1.80;1.10;;;19.30;71.90;;;;;;5104311;28;20028;-35
2021/10/23 06:44:31;;;;;;;1.87;1.20;;;19.30;71.80;;;;;;5104016;28;20024;-35
2021/10/23 06:46:58;;;;;;;1.25;1.15;;;19.30;71.90;;;;;;5103925;28;20028;-35
2021/10/23 06:49:24;;;;;;;1.20;1.08;;;19.30;71.90;;;;;;5095106;28;20020;-35
2021/10/23 06:51:50;;;;;;;1.35;1.20;;;19.20;71.90;;;;;;5083487;28;20103;-35
2021/10/23 06:54:16;;;;;;;2.08;1.35;;;19.30;72.00;;;;;;5083605;28;20021;-35
2021/10/23 06:56:42;;;;;;;2.03;1.38;;;19.30;71.90;;;;;;5095751;28;20038;-35
2021/10/23 06:59:08;;;;;;;1.17;1.08;;;19.20;71.90;;;;;;5103612;28;20028;-35
2021/10/23 07:01:35;;;;;;;1.10;1.00;;;19.20;72.00;;;;;;5103756;28;20055;-35
2021/10/23 07:04:01;;;;;;;1.10;1.00;;;19.20;72.00;;;;;;5103802;28;20024;-35
2021/10/23 07:06:27;;;;;;;1.25;1.00;;;19.20;72.00;;;;;;5103515;28;20024;-36
2021/10/23 07:08:53;;;;;;;1.13;0.95;;;19.20;72.10;;;;;;5101989;28;20066;-36
2021/10/23 07:11:19;;;;;;;0.93;0.80;;;19.20;72.10;;;;;;5103823;28;20091;-35
2021/10/23 07:13:45;;;;;;;1.20;1.10;;;19.10;72.00;;;;;;5103721;28;20047;-35
2021/10/23 07:16:11;;;;;;;1.10;1.00;;;19.10;72.10;;;;;;5102011;28;20026;-35
2021/10/23 07:18:38;;;;;;;1.38;1.00;;;19.10;72.10;;;;;;5103377;28;20028;-35
2021/10/23 07:21:04;;;;;;;2.00;1.30;;;19.10;72.10;;;;;;5102167;28;20069;-36
2021/10/23 07:23:30;;;;;;;1.38;1.00;;;19.10;72.10;;;;;;5103506;28;20031;-35
2021/10/23 07:25:57;;;;;;;1.27;1.10;;;19.10;72.10;;;;;;5103362;28;20031;-35
2021/10/23 07:28:24;;;;;;;1.73;1.00;;;19.10;72.20;;;;;;5103237;28;20024;-35
2021/10/23 07:30:50;;;;;;;1.90;1.08;;;19.10;72.20;;;;;;5103476;28;20035;-35
2021/10/23 07:33:16;;;;;;;1.20;1.02;;;19.00;72.10;;;;;;5101918;28;20036;-35
2021/10/23 07:35:42;;;;;;;1.52;1.15;;;19.00;72.20;;;;;;5103229;28;20028;-35
2021/10/23 07:38:09;;;;;;;1.50;1.15;;;19.00;72.20;;;;;;5103098;28;20496;-35
2021/10/23 07:40:35;;;;;;;2.03;1.20;;;19.00;72.30;;;;;;5102047;28;20032;-35
2021/10/23 07:43:02;;;;;;;1.35;1.10;;;19.00;72.30;;;;;;5103279;28;20036;-36
2021/10/23 07:45:28;;;;;;;1.47;1.20;;;19.00;72.30;;;;;;5103037;28;20039;-35
2021/10/23 07:47:54;;;;;;;2.05;1.30;;;18.90;72.20;;;;;;5102654;28;20024;-35
2021/10/23 07:50:20;;;;;;;1.67;1.10;;;18.90;72.30;;;;;;5103046;28;20055;-36
2021/10/23 07:52:46;;;;;;;1.80;1.10;;;18.90;72.40;;;;;;5103223;28;20126;-35
2021/10/23 07:55:13;;;;;;;0.95;0.70;;;18.90;72.40;;;;;;5103237;28;20028;-35
2021/10/23 07:57:39;;;;;;;2.22;0.90;;;18.90;72.40;;;;;;5103087;28;20048;-35
2021/10/23 08:00:06;;;;;;;1.20;1.10;;;18.90;72.40;;;;;;5102986;28;20035;-38
2021/10/23 08:02:33;;;;;;;1.80;0.93;;;18.90;72.50;;;;;;5101850;28;20110;-35
2021/10/23 08:04:59;;;;;;;1.35;1.20;;;18.90;72.40;;;;;;5102881;28;20016;-36
2021/10/23 08:07:25;;;;;;;2.10;1.10;;;18.80;72.40;;;;;;5102931;28;20040;-35
2021/10/23 08:09:53;;;;;;;1.60;1.00;;;18.80;72.50;;;;;;5103807;28;20024;-35
2021/10/23 08:12:19;;;;;;;1.15;1.05;;;18.80;72.40;;;;;;5106992;28;20100;-35
2021/10/23 08:14:45;;;;;;;1.35;1.17;;;18.80;72.50;;;;;;5106897;28;20039;-35
2021/10/23 08:17:11;;;;;;;1.38;1.05;;;18.80;72.50;;;;;;5106976;28;20038;-35
2021/10/23 08:19:38;;;;;;;1.02;0.70;;;18.80;72.50;;;;;;5097292;28;20027;-35
2021/10/23 08:22:04;;;;;;;1.00;0.90;;;18.80;72.60;;;;;;5089485;28;20028;-35
2021/10/23 08:24:30;;;;;;;1.45;1.10;;;18.80;72.60;;;;;;5096056;28;20024;-35
2021/10/23 08:26:56;;;;;;;2.17;1.00;;;18.70;72.60;;;;;;5106400;28;20097;-35
2021/10/23 08:29:23;;;;;;;2.00;1.05;;;18.70;72.60;;;;;;5106490;28;20024;-35
2021/10/23 08:31:49;;;;;;;1.73;1.00;;;18.70;72.70;;;;;;5106524;28;20028;-35
2021/10/23 08:34:15;;;;;;;1.30;1.20;;;18.70;72.70;;;;;;5106675;28;20122;-35
2021/10/23 08:36:41;;;;;;;1.30;1.02;;;18.70;72.80;;;;;;5106420;28;20020;-35
2021/10/23 08:39:07;;;;;;;1.30;1.10;;;18.70;72.70;;;;;;5106405;28;20500;-39
2021/10/23 08:41:33;;;;;;;1.27;1.10;;;18.70;72.80;;;;;;5106590;28;20024;-35
2021/10/23 08:44:04;;;;;;;1.40;1.05;;;18.60;72.60;;;;;;5106195;28;20031;-35
2021/10/23 08:46:30;;;;;;;1.42;1.17;;;18.60;72.70;;;;;;5106434;28;20020;-35
2021/10/23 08:48:58;;;;;;;1.52;1.10;;;18.60;72.70;;;;;;5088053;28;20034;-35
2021/10/23 08:51:25;;;;;;;1.27;1.17;;;18.60;72.70;;;;;;5106249;28;20069;-35
2021/10/23 08:53:51;;;;;;;;;;;18.60;72.80;;;;;;5105272;28;20039;-35
2021/10/23 08:56:17;;;;;;;2.45;1.00;;;18.60;72.80;;;;;;5104880;28;19904;-35
2021/10/23 08:58:44;;;;;;;1.92;1.23;;;18.60;72.80;;;;;;5106215;28;20034;-35
2021/10/23 09:01:12;;;;;;;1.17;1.08;;;18.60;72.80;;;;;;5105960;28;20024;-35
2021/10/23 09:03:40;;;;;;;1.25;1.15;;;18.50;72.90;;;;;;5106062;28;20038;-35
2021/10/23 09:06:18;;;;;;;2.22;1.10;;;18.50;72.80;;;;;;5104407;28;20055;-35
2021/10/23 09:08:58;;;;;;;1.00;0.90;;;18.50;73.00;;;;;;5088661;28;20111;-35
2021/10/23 09:11:41;;;;;;;1.60;1.00;;;18.50;72.90;;;;;;5105266;28;20020;-35
2021/10/23 09:14:29;;;;;;;1.58;0.98;;;18.50;72.90;;;;;;5105688;28;20020;-35
2021/10/23 09:17:09;;;;;;;1.40;1.00;;;18.50;72.90;;;;;;5105924;28;20031;-35
2021/10/23 09:19:39;;;;;;;1.30;0.95;;;18.40;73.00;;;;;;5105485;28;20481;-36
2021/10/23 09:22:09;;;;;;;3.97;1.30;;;18.40;73.00;;;;;;5104286;28;20100;-36
2021/10/23 09:24:35;;;;;;;1.50;1.13;;;18.40;73.00;;;;;;5104226;28;20077;-35
2021/10/23 09:27:13;;;;;;;0.90;0.90;;;18.40;73.00;;;;;;5105615;28;20412;-35
2021/10/23 09:29:38;;;;;;;;;;;18.40;73.10;;;;;;5105734;28;20024;-35
2021/10/23 09:32:08;;;;;;;1.52;0.98;;;18.40;73.10;;;;;;5105504;28;19916;-35
2021/10/23 09:34:34;;;;;;;1.50;1.17;;;18.40;73.00;;;;;;5104307;28;20019;-35
2021/10/23 09:37:03;;;;;;;1.00;0.95;;;18.30;73.10;;;;;;5087153;28;20047;-35
2021/10/23 09:39:33;;;;;;;1.10;1.00;;;18.30;73.20;;;;;;5087490;28;20023;-35
2021/10/23 09:42:15;;;;;;;1.27;1.00;;;18.30;73.10;;;;;;5105268;28;20050;-36
2021/10/23 09:45:02;;;;;;;1.15;1.00;;;18.30;73.10;;;;;;5104898;28;20028;-36
2021/10/23 09:47:39;;;;;;;1.20;1.05;;;18.30;73.10;;;;;;5103799;28;20024;-35
2021/10/23 09:50:22;;;;;;;1.35;1.10;;;18.30;73.20;;;;;;5104879;28;20077;-35
2021/10/23 09:53:03;;;;;;;0.88;0.85;;;18.30;73.20;;;;;;5105050;28;20047;-36
2021/10/23 09:55:52;;;;;;;0.90;0.90;;;18.20;73.20;;;;;;5104256;28;20020;-35
2021/10/23 09:58:28;;;;;;;1.40;1.15;;;18.20;73.20;;;;;;5094631;28;20397;-38
2021/10/23 10:00:54;;;;;;;1.30;0.98;;;18.20;73.30;;;;;;5105012;28;20038;-35
2021/10/23 10:03:27;;;;;;;1.35;0.90;;;18.20;73.30;;;;;;5104997;28;20470;-35
2021/10/23 10:05:57;;;;;;;1.02;0.93;;;18.20;73.20;;;;;;5104379;28;20028;-35
2021/10/23 10:08:24;;;;;;;1.35;1.20;;;18.20;73.30;;;;;;5103549;28;20067;-35
2021/10/23 10:10:50;;;;;;;1.10;0.90;;;18.20;74.10;;;;;;5097397;28;20440;-35
2021/10/23 10:13:18;;;;;;;1.65;0.63;;;18.10;73.30;;;;;;5084581;28;20040;-35
2021/10/23 10:16:02;;;;;;;0.90;0.90;;;18.10;73.40;;;;;;5084133;28;20024;-35
2021/10/23 10:18:29;;;;;;;1.00;0.95;;;18.10;73.40;;;;;;5101438;28;20028;-35
2021/10/23 10:20:56;;;;;;;2.25;0.90;;;18.10;73.40;;;;;;5104543;28;20031;-35
2021/10/23 10:23:29;;;;;;;;;;;18.10;73.40;;;;;;5105021;28;20518;-35
2021/10/23 10:26:26;;;;;;;1.05;0.90;;;18.10;73.40;;;;;;5103727;28;20365;-36
2021/10/23 10:32:39;;;;;;;1.27;1.08;;;18.10;73.50;;;;;;5104366;28;20035;-36
2021/10/23 10:35:18;;;;;;;1.05;0.95;;;18.00;73.50;;;;;;5021594;28;20041;-35
2021/10/23 10:43:18;;;;;;;1.27;1.17;;;18.00;73.50;;;;;;5021461;28;20049;-35
2021/10/23 10:45:47;;;;;;;1.10;1.00;;;18.00;73.60;;;;;;5021226;28;20018;-35
2021/10/23 10:48:25;;;;;;;1.10;1.00;;;18.00;73.60;;;;;;5021415;28;20030;-35
2021/10/23 10:50:59;;;;;;;0.85;0.85;;;18.00;73.70;;;;;;5021450;28;20030;-36
2021/10/23 10:53:29;;;;;;;1.13;1.02;;;17.90;73.60;;;;;;5021398;28;20034;-35
2021/10/23 10:56:15;;;;;;;1.35;1.10;;;17.90;73.70;;;;;;5020729;28;20883;-36
2021/10/23 10:58:45;;;;;;;1.35;1.00;;;17.90;73.70;;;;;;5021342;28;20144;-35
2021/10/23 11:01:30;;;;;;;1.20;0.90;;;17.90;73.80;;;;;;5021085;28;20041;-36
2021/10/23 11:03:58;;;;;;;1.00;0.90;;;17.90;74.50;;;;;;5004893;28;20033;-35
2021/10/23 11:06:49;;;;;;;1.10;1.00;;;17.90;73.80;;;;;;5020928;28;20037;-35
2021/10/23 11:09:19;;;;;;;1.00;0.90;;;17.90;73.80;;;;;;5079459;28;20055;-35
2021/10/23 11:11:49;;;;;;;3.03;1.00;;;17.80;73.70;;;;;;5103526;28;20031;-36
2021/10/23 11:14:21;;;;;;;1.33;1.00;;;17.80;73.70;;;;;;5103582;28;20064;-36
2021/10/23 11:17:08;;;;;;;1.10;1.00;;;17.80;73.80;;;;;;5103498;28;20587;-36
2021/10/23 11:19:48;;;;;;;0.88;0.65;;;17.80;73.80;;;;;;5089921;28;20040;-35
2021/10/23 11:22:26;;;;;;;1.27;1.15;;;17.80;73.90;;;;;;5103647;28;20028;-35
2021/10/23 11:25:05;;;;;;;1.23;1.13;;;17.80;73.90;;;;;;5103564;28;20025;-35
2021/10/23 11:27:36;;;;;;;1.27;0.90;;;17.80;73.80;;;;;;5103126;28;20062;-35
2021/10/23 11:30:16;;;;;;;1.05;0.98;;;17.80;73.90;;;;;;5103619;28;20070;-35
2021/10/23 11:32:47;;;;;;;1.83;1.00;;;17.70;73.80;;;;;;5103502;28;20036;-36
2021/10/23 11:35:13;;;;;;;1.23;1.13;;;17.80;73.90;;;;;;5102112;28;20028;-35
2021/10/23 11:37:40;;;;;;;1.85;1.10;;;17.70;73.90;;;;;;5102954;28;20038;-35
2021/10/23 11:40:08;;;;;;;1.27;0.90;;;17.70;73.90;;;;;;5103356;28;20024;-35
2021/10/23 11:42:45;;;;;;;1.30;0.85;;;17.70;74.10;;;;;;5102111;28;20046;-35
2021/10/23 11:45:24;;;;;;;1.30;1.00;;;17.70;74.00;;;;;;5104648;28;20024;-35
2021/10/23 11:47:52;;;;;;;1.13;0.85;;;17.70;74.00;;;;;;5107334;28;20048;-36
2021/10/23 11:50:37;;;;;;;1.60;1.13;;;17.70;74.00;;;;;;5107536;28;20084;-35
2021/10/23 11:53:21;;;;;;;1.30;1.20;;;17.60;74.00;;;;;;5107536;28;20040;-35
2021/10/23 11:56:03;;;;;;;1.13;1.00;;;17.60;74.00;;;;;;5106057;28;20035;-35
2021/10/23 11:58:39;;;;;;;1.05;0.98;;;17.60;74.10;;;;;;5107092;28;20040;-35
2021/10/23 12:01:16;;;;;;;1.73;1.02;;;17.60;74.10;;;;;;5107468;28;20028;-35
2021/10/23 12:03:48;;;;;;;1.42;1.00;;;17.60;74.10;;;;;;5105867;28;20050;-35
2021/10/23 12:06:24;;;;;;;1.40;1.00;;;17.60;74.20;;;;;;5107164;28;20020;-36
2021/10/23 12:08:51;;;;;;;1.42;1.00;;;17.60;74.10;;;;;;5105428;28;20042;-36
2021/10/23 12:11:24;;;;;;;1.10;1.00;;;17.50;74.10;;;;;;5102953;28;20111;-35
2021/10/23 12:14:05;;;;;;;1.25;1.00;;;17.50;74.20;;;;;;5106995;28;20047;-35
2021/10/23 12:16:49;;;;;;;1.00;0.90;;;17.50;74.10;;;;;;5107114;28;20040;-35
2021/10/23 12:19:43;;;;;;;1.02;0.88;;;17.50;74.20;;;;;;5105772;28;20016;-35
2021/10/23 12:22:13;;;;;;;1.13;1.02;;;17.50;74.20;;;;;;5105563;28;20020;-35
2021/10/23 12:24:46;;;;;;;1.05;1.00;;;17.50;74.20;;;;;;5088884;28;20028;-35
2021/10/23 12:27:26;;;;;;;1.45;1.20;;;17.50;74.20;;;;;;5089313;28;20670;-35
2021/10/23 12:29:53;;;;;;;1.20;1.10;;;17.50;74.30;;;;;;5086496;28;20436;-36
2021/10/23 12:32:20;;;;;;;1.40;1.02;;;17.50;74.20;;;;;;5097161;28;20028;-35
2021/10/23 12:34:53;;;;;;;1.58;1.10;;;17.40;74.30;;;;;;5106658;28;20036;-35
2021/10/23 12:37:28;;;;;;;1.50;1.17;;;17.40;74.30;;;;;;5106322;28;20020;-35
2021/10/23 12:40:04;;;;;;;1.25;1.02;;;17.40;74.30;;;;;;5106727;28;20059;-35
2021/10/23 12:42:34;;;;;;;1.17;1.05;;;17.40;74.30;;;;;;5106315;28;20040;-35
2021/10/23 12:45:00;;;;;;;1.27;1.17;;;17.40;74.30;;;;;;5106604;28;20036;-35
2021/10/23 12:47:26;;;;;;;1.88;1.20;;;17.40;74.40;;;;;;5106412;28;20084;-35
2021/10/23 12:49:52;;;;;;;1.58;1.00;;;17.40;74.40;;;;;;5106450;28;20016;-35
2021/10/23 12:52:18;;;;;;;1.85;1.20;;;17.30;74.30;;;;;;5106216;28;20093;-35
2021/10/23 12:54:44;;;;;;;1.40;1.27;;;17.30;74.40;;;;;;5105824;28;20028;-36
2021/10/23 12:57:11;;;;;;;1.00;0.95;;;17.30;74.40;;;;;;5105615;28;20026;-36
2021/10/23 12:59:37;;;;;;;0.95;0.90;;;17.30;74.40;;;;;;5106010;28;20024;-36
2021/10/23 13:02:03;;;;;;;1.13;1.02;;;17.30;74.40;;;;;;5106252;28;20024;-35
2021/10/23 13:04:29;;;;;;;1.30;1.20;;;17.30;74.30;;;;;;5105896;28;20031;-35